sensor_id;sensor_type;location;lat;lon;timestamp;pressure;altitude;pressure_sealevel;temperature;humidity
59337;BME280;45115;52.002;4.686;2022-09-09T00:00:22;100739.84;;;14.00;100.00
59337;BME280;45115;52.002;4.686;2022-09-09T00:02:55;100743.88;;;13.98;100.00
59337;BME280;45115;52.002;4.686;2022-09-09T00:05:29;100736.66;;;13.98;100.00
59337;BME280;45115;52.002;4.686;2022-09-09T00:07:59;100744.38;;;14.00;100.00
59337;BME280;45115;52.002;4.686;2022-09-09T00:10:30;100742.50;;;14.00;100.00
59337;BME280;45115;52.002;4.686;2022-09-09T00:13:05;100740.69;;;13.95;100.00
59337;BME280;45115;52.002;4.686;2022-09-09T00:15:39;100740.41;;;13.97;100.00
59337;BME280;45115;52.002;4.686;2022-09-09T00:18:15;100741.72;;;14.00;100.00
59337;BME280;45115;52.002;4.686;2022-09-09T00:20:48;100733.50;;;13.96;100.00
59337;BME280;45115;52.002;4.686;2022-09-09T00:23:20;100729.75;;;13.97;100.00
59337;BME280;45115;52.002;4.686;2022-09-09T00:25:56;100726.31;;;13.97;100.00
59337;BME280;45115;52.002;4.686;2022-09-09T00:28:27;100726.06;;;13.93;100.00
59337;BME280;45115;52.002;4.686;2022-09-09T00:30:59;100723.94;;;13.95;100.00
59337;BME280;45115;52.002;4.686;2022-09-09T00:33:30;100730.44;;;13.89;100.00
59337;BME280;45115;52.002;4.686;2022-09-09T00:35:58;100721.72;;;13.83;100.00
59337;BME280;45115;52.002;4.686;2022-09-09T00:38:31;100719.72;;;13.75;100.00
59337;BME280;45115;52.002;4.686;2022-09-09T00:41:03;100717.63;;;13.72;100.00
59337;BME280;45115;52.002;4.686;2022-09-09T00:43:40;100712.78;;;13.74;100.00
59337;BME280;45115;52.002;4.686;2022-09-09T00:46:24;100716.91;;;13.66;100.00
59337;BME280;45115;52.002;4.686;2022-09-09T00:48:59;100709.25;;;13.64;100.00
59337;BME280;45115;52.002;4.686;2022-09-09T00:51:41;100710.09;;;13.60;100.00
59337;BME280;45115;52.002;4.686;2022-09-09T00:54:29;100705.94;;;13.53;100.00
59337;BME280;45115;52.002;4.686;2022-09-09T00:57:07;100704.84;;;13.54;100.00
59337;BME280;45115;52.002;4.686;2022-09-09T00:59:46;100707.03;;;13.52;100.00
59337;BME280;45115;52.002;4.686;2022-09-09T01:02:20;100710.31;;;13.44;100.00
59337;BME280;45115;52.002;4.686;2022-09-09T01:04:49;100715.31;;;13.51;100.00
59337;BME280;45115;52.002;4.686;2022-09-09T01:07:17;100716.59;;;13.53;100.00
59337;BME280;45115;52.002;4.686;2022-09-09T01:09:52;100721.13;;;13.53;100.00
59337;BME280;45115;52.002;4.686;2022-09-09T01:12:28;100717.00;;;13.61;100.00
59337;BME280;45115;52.002;4.686;2022-09-09T01:15:03;100719.19;;;13.59;100.00
59337;BME280;45115;52.002;4.686;2022-09-09T01:17:46;100717.69;;;13.52;100.00
59337;BME280;45115;52.002;4.686;2022-09-09T01:20:19;100714.94;;;13.58;100.00
59337;BME280;45115;52.002;4.686;2022-09-09T01:23:10;100703.06;;;13.50;100.00
59337;BME280;45115;52.002;4.686;2022-09-09T01:26:10;100696.00;;;13.59;100.00
59337;BME280;45115;52.002;4.686;2022-09-09T01:28:39;100690.75;;;13.54;100.00
59337;BME280;45115;52.002;4.686;2022-09-09T01:31:15;100691.81;;;13.53;100.00
59337;BME280;45115;52.002;4.686;2022-09-09T01:33:45;100691.50;;;13.54;100.00
59337;BME280;45115;52.002;4.686;2022-09-09T01:36:17;100675.63;;;13.63;100.00
59337;BME280;45115;52.002;4.686;2022-09-09T01:38:49;100681.91;;;13.73;100.00
59337;BME280;45115;52.002;4.686;2022-09-09T01:41:18;100674.28;;;13.80;100.00
59337;BME280;45115;52.002;4.686;2022-09-09T01:44:08;100672.34;;;13.86;100.00
59337;BME280;45115;52.002;4.686;2022-09-09T01:46:36;100675.22;;;13.89;100.00
59337;BME280;45115;52.002;4.686;2022-09-09T01:49:06;100675.50;;;13.88;100.00
59337;BME280;45115;52.002;4.686;2022-09-09T01:51:35;100684.88;;;13.85;100.00
59337;BME280;45115;52.002;4.686;2022-09-09T01:54:05;100677.84;;;13.75;100.00
59337;BME280;45115;52.002;4.686;2022-09-09T01:56:42;100672.50;;;13.75;100.00
59337;BME280;45115;52.002;4.686;2022-09-09T01:59:28;100680.50;;;13.75;100.00
59337;BME280;45115;52.002;4.686;2022-09-09T02:02:09;100671.31;;;13.67;100.00
59337;BME280;45115;52.002;4.686;2022-09-09T02:04:43;100675.16;;;13.61;100.00
59337;BME280;45115;52.002;4.686;2022-09-09T02:07:28;100675.34;;;13.65;100.00
59337;BME280;45115;52.002;4.686;2022-09-09T02:10:08;100670.03;;;13.65;100.00
59337;BME280;45115;52.002;4.686;2022-09-09T02:12:39;100668.66;;;13.67;100.00
59337;BME280;45115;52.002;4.686;2022-09-09T02:15:12;100665.09;;;13.72;100.00
59337;BME280;45115;52.002;4.686;2022-09-09T02:17:49;100666.00;;;13.81;100.00
59337;BME280;45115;52.002;4.686;2022-09-09T02:20:18;100656.44;;;13.80;100.00
59337;BME280;45115;52.002;4.686;2022-09-09T02:22:53;100657.09;;;13.72;100.00
59337;BME280;45115;52.002;4.686;2022-09-09T02:25:24;100659.06;;;13.66;100.00
59337;BME280;45115;52.002;4.686;2022-09-09T02:27:56;100661.25;;;13.64;100.00
59337;BME280;45115;52.002;4.686;2022-09-09T02:30:24;100655.78;;;13.55;100.00
59337;BME280;45115;52.002;4.686;2022-09-09T02:32:56;100650.59;;;13.45;100.00
59337;BME280;45115;52.002;4.686;2022-09-09T02:35:37;100646.44;;;13.39;100.00
59337;BME280;45115;52.002;4.686;2022-09-09T02:38:08;100647.88;;;13.31;100.00
59337;BME280;45115;52.002;4.686;2022-09-09T02:40:38;100636.44;;;13.31;100.00
59337;BME280;45115;52.002;4.686;2022-09-09T02:43:06;100641.78;;;13.31;100.00
59337;BME280;45115;52.002;4.686;2022-09-09T02:45:38;100626.44;;;13.22;100.00
59337;BME280;45115;52.002;4.686;2022-09-09T02:48:14;100630.41;;;13.25;100.00
59337;BME280;45115;52.002;4.686;2022-09-09T02:50:50;100632.78;;;13.26;100.00
59337;BME280;45115;52.002;4.686;2022-09-09T02:53:25;100629.59;;;13.24;100.00
59337;BME280;45115;52.002;4.686;2022-09-09T02:55:56;100632.78;;;13.26;100.00
59337;BME280;45115;52.002;4.686;2022-09-09T02:58:27;100624.56;;;13.23;100.00
59337;BME280;45115;52.002;4.686;2022-09-09T03:00:59;100636.38;;;13.16;100.00
59337;BME280;45115;52.002;4.686;2022-09-09T03:03:26;100635.06;;;13.14;100.00
59337;BME280;45115;52.002;4.686;2022-09-09T03:05:53;100639.03;;;13.16;100.00
59337;BME280;45115;52.002;4.686;2022-09-09T03:08:20;100642.56;;;13.12;100.00
59337;BME280;45115;52.002;4.686;2022-09-09T03:10:47;100638.41;;;13.06;100.00
59337;BME280;45115;52.002;4.686;2022-09-09T03:13:14;100635.75;;;13.06;100.00
59337;BME280;45115;52.002;4.686;2022-09-09T03:15:43;100635.75;;;13.06;100.00
59337;BME280;45115;52.002;4.686;2022-09-09T03:18:14;100633.09;;;13.06;100.00
59337;BME280;45115;52.002;4.686;2022-09-09T03:20:41;100628.13;;;12.99;100.00
59337;BME280;45115;52.002;4.686;2022-09-09T03:23:09;100636.91;;;12.99;100.00
59337;BME280;45115;52.002;4.686;2022-09-09T03:25:36;100638.84;;;12.94;100.00
59337;BME280;45115;52.002;4.686;2022-09-09T03:28:04;100634.75;;;13.01;100.00
59337;BME280;45115;52.002;4.686;2022-09-09T03:30:31;100634.53;;;12.98;100.00
59337;BME280;45115;52.002;4.686;2022-09-09T03:32:59;100638.19;;;13.02;100.00
59337;BME280;45115;52.002;4.686;2022-09-09T03:35:30;100637.69;;;13.00;100.00
59337;BME280;45115;52.002;4.686;2022-09-09T03:37:57;100635.03;;;13.00;100.00
59337;BME280;45115;52.002;4.686;2022-09-09T03:40:25;100636.09;;;12.99;100.00
59337;BME280;45115;52.002;4.686;2022-09-09T03:42:52;100628.91;;;12.99;100.00
59337;BME280;45115;52.002;4.686;2022-09-09T03:45:19;100638.63;;;12.90;100.00
59337;BME280;45115;52.002;4.686;2022-09-09T03:47:46;100628.25;;;12.88;100.00
59337;BME280;45115;52.002;4.686;2022-09-09T03:50:14;100625.25;;;12.95;100.00
59337;BME280;45115;52.002;4.686;2022-09-09T03:52:44;100634.41;;;12.89;100.00
59337;BME280;45115;52.002;4.686;2022-09-09T03:55:17;100637.34;;;12.87;100.00
59337;BME280;45115;52.002;4.686;2022-09-09T03:57:44;100634.41;;;12.89;100.00
59337;BME280;45115;52.002;4.686;2022-09-09T04:00:12;100626.25;;;12.80;100.00
59337;BME280;45115;52.002;4.686;2022-09-09T04:02:41;100628.94;;;12.80;100.00
59337;BME280;45115;52.002;4.686;2022-09-09T04:05:10;100625.41;;;12.85;100.00
59337;BME280;45115;52.002;4.686;2022-09-09T04:07:40;100616.91;;;12.83;100.00
59337;BME280;45115;52.002;4.686;2022-09-09T04:10:08;100617.47;;;12.80;100.00
59337;BME280;45115;52.002;4.686;2022-09-09T04:12:37;100613.25;;;12.79;100.00
59337;BME280;45115;52.002;4.686;2022-09-09T04:15:04;100617.69;;;12.83;100.00
59337;BME280;45115;52.002;4.686;2022-09-09T04:17:32;100607.63;;;12.80;100.00
59337;BME280;45115;52.002;4.686;2022-09-09T04:19:58;100612.72;;;12.76;100.00
59337;BME280;45115;52.002;4.686;2022-09-09T04:22:26;100610.28;;;12.80;100.00
59337;BME280;45115;52.002;4.686;2022-09-09T04:24:54;100603.16;;;12.75;100.00
59337;BME280;45115;52.002;4.686;2022-09-09T04:27:22;100599.19;;;12.73;100.00
59337;BME280;45115;52.002;4.686;2022-09-09T04:29:48;100604.97;;;12.80;100.00
59337;BME280;45115;52.002;4.686;2022-09-09T04:32:15;100606.34;;;12.78;100.00
59337;BME280;45115;52.002;4.686;2022-09-09T04:34:42;100603.69;;;12.78;100.00
59337;BME280;45115;52.002;4.686;2022-09-09T04:37:10;100603.28;;;12.84;100.00
59337;BME280;45115;52.002;4.686;2022-09-09T04:39:37;100600.63;;;12.84;100.00
59337;BME280;45115;52.002;4.686;2022-09-09T04:42:06;100601.63;;;12.88;100.00
59337;BME280;45115;52.002;4.686;2022-09-09T04:44:33;100603.53;;;12.88;100.00
59337;BME280;45115;52.002;4.686;2022-09-09T04:47:00;100597.88;;;12.89;100.00
59337;BME280;45115;52.002;4.686;2022-09-09T04:49:26;100594.75;;;12.87;100.00
59337;BME280;45115;52.002;4.686;2022-09-09T04:51:54;100595.16;;;12.95;100.00
59337;BME280;45115;52.002;4.686;2022-09-09T04:54:21;100598.97;;;12.88;100.00
59337;BME280;45115;52.002;4.686;2022-09-09T04:56:50;100594.94;;;12.91;100.00
59337;BME280;45115;52.002;4.686;2022-09-09T04:59:19;100591.19;;;12.92;100.00
59337;BME280;45115;52.002;4.686;2022-09-09T05:01:50;100595.75;;;12.92;100.00
59337;BME280;45115;52.002;4.686;2022-09-09T05:04:17;100586.59;;;12.98;100.00
59337;BME280;45115;52.002;4.686;2022-09-09T05:06:44;100599.69;;;12.94;100.00
59337;BME280;45115;52.002;4.686;2022-09-09T05:09:12;100593.66;;;12.88;100.00
59337;BME280;45115;52.002;4.686;2022-09-09T05:11:39;100586.47;;;12.89;100.00
59337;BME280;45115;52.002;4.686;2022-09-09T05:14:16;100585.59;;;12.94;100.00
59337;BME280;45115;52.002;4.686;2022-09-09T05:16:44;100585.72;;;13.02;100.00
59337;BME280;45115;52.002;4.686;2022-09-09T05:19:12;100581.47;;;13.01;100.00
59337;BME280;45115;52.002;4.686;2022-09-09T05:21:45;100580.31;;;13.08;100.00
59337;BME280;45115;52.002;4.686;2022-09-09T05:24:14;100582.69;;;13.09;100.00
59337;BME280;45115;52.002;4.686;2022-09-09T05:26:42;100586.16;;;13.10;100.00
59337;BME280;45115;52.002;4.686;2022-09-09T05:29:09;100576.78;;;13.12;100.00
59337;BME280;45115;52.002;4.686;2022-09-09T05:31:37;100583.31;;;13.20;100.00
59337;BME280;45115;52.002;4.686;2022-09-09T05:34:09;100574.75;;;13.23;100.00
59337;BME280;45115;52.002;4.686;2022-09-09T05:36:36;100573.66;;;13.24;100.00
59337;BME280;45115;52.002;4.686;2022-09-09T05:39:03;100572.69;;;13.34;100.00
59337;BME280;45115;52.002;4.686;2022-09-09T05:41:31;100576.50;;;13.47;100.00
59337;BME280;45115;52.002;4.686;2022-09-09T05:44:01;100576.34;;;13.58;100.00
59337;BME280;45115;52.002;4.686;2022-09-09T05:46:30;100583.81;;;13.69;100.00
59337;BME280;45115;52.002;4.686;2022-09-09T05:48:56;100583.75;;;13.89;100.00
59337;BME280;45115;52.002;4.686;2022-09-09T05:51:31;100579.91;;;14.09;100.00
59337;BME280;45115;52.002;4.686;2022-09-09T05:54:02;100584.59;;;14.40;100.00
59337;BME280;45115;52.002;4.686;2022-09-09T05:56:32;100588.66;;;14.74;100.00
59337;BME280;45115;52.002;4.686;2022-09-09T05:59:00;100589.13;;;14.91;100.00
59337;BME280;45115;52.002;4.686;2022-09-09T06:01:28;100587.84;;;15.11;100.00
59337;BME280;45115;52.002;4.686;2022-09-09T06:03:56;100580.84;;;15.24;100.00
59337;BME280;45115;52.002;4.686;2022-09-09T06:06:24;100581.09;;;15.36;100.00
59337;BME280;45115;52.002;4.686;2022-09-09T06:08:56;100578.16;;;15.47;100.00
59337;BME280;45115;52.002;4.686;2022-09-09T06:11:27;100575.03;;;15.53;100.00
59337;BME280;45115;52.002;4.686;2022-09-09T06:13:57;100581.88;;;15.68;100.00
59337;BME280;45115;52.002;4.686;2022-09-09T06:16:26;100572.16;;;15.73;100.00
59337;BME280;45115;52.002;4.686;2022-09-09T06:18:54;100573.28;;;15.89;100.00
59337;BME280;45115;52.002;4.686;2022-09-09T06:21:24;100571.88;;;15.83;100.00
59337;BME280;45115;52.002;4.686;2022-09-09T06:23:52;100573.72;;;15.74;100.00
59337;BME280;45115;52.002;4.686;2022-09-09T06:26:22;100581.75;;;15.74;100.00
59337;BME280;45115;52.002;4.686;2022-09-09T06:28:52;100579.34;;;15.63;100.00
59337;BME280;45115;52.002;4.686;2022-09-09T06:31:21;100582.91;;;15.59;100.00
59337;BME280;45115;52.002;4.686;2022-09-09T06:33:50;100577.56;;;15.59;100.00
59337;BME280;45115;52.002;4.686;2022-09-09T06:36:19;100576.56;;;15.77;100.00
59337;BME280;45115;52.002;4.686;2022-09-09T06:38:46;100587.28;;;15.86;100.00
59337;BME280;45115;52.002;4.686;2022-09-09T06:41:16;100581.25;;;16.12;100.00
59337;BME280;45115;52.002;4.686;2022-09-09T06:43:45;100585.88;;;16.47;100.00
59337;BME280;45115;52.002;4.686;2022-09-09T06:46:14;100590.91;;;16.66;100.00
59337;BME280;45115;52.002;4.686;2022-09-09T06:48:41;100578.78;;;16.69;100.00
59337;BME280;45115;52.002;4.686;2022-09-09T06:51:12;100585.25;;;16.50;100.00
59337;BME280;45115;52.002;4.686;2022-09-09T06:53:41;100580.84;;;16.54;100.00
59337;BME280;45115;52.002;4.686;2022-09-09T06:56:19;100589.50;;;16.51;100.00
59337;BME280;45115;52.002;4.686;2022-09-09T06:58:47;100585.09;;;16.46;100.00
59337;BME280;45115;52.002;4.686;2022-09-09T07:01:22;100578.78;;;16.42;100.00
59337;BME280;45115;52.002;4.686;2022-09-09T07:03:51;100581.75;;;16.41;100.00
59337;BME280;45115;52.002;4.686;2022-09-09T07:06:20;100578.13;;;16.45;100.00
59337;BME280;45115;52.002;4.686;2022-09-09T07:08:51;100586.97;;;16.55;100.00
59337;BME280;45115;52.002;4.686;2022-09-09T07:11:19;100579.88;;;16.50;100.00
59337;BME280;45115;52.002;4.686;2022-09-09T07:13:48;100585.09;;;16.55;100.00
59337;BME280;45115;52.002;4.686;2022-09-09T07:16:16;100584.13;;;16.69;100.00
59337;BME280;45115;52.002;4.686;2022-09-09T07:18:43;100584.91;;;16.87;100.00
59337;BME280;45115;52.002;4.686;2022-09-09T07:21:11;100580.66;;;17.04;100.00
59337;BME280;45115;52.002;4.686;2022-09-09T07:23:39;100579.06;;;17.20;100.00
59337;BME280;45115;52.002;4.686;2022-09-09T07:26:08;100586.72;;;17.48;100.00
59337;BME280;45115;52.002;4.686;2022-09-09T07:28:36;100585.13;;;17.56;100.00
59337;BME280;45115;52.002;4.686;2022-09-09T07:31:06;100581.47;;;17.61;100.00
59337;BME280;45115;52.002;4.686;2022-09-09T07:33:34;100577.47;;;17.67;100.00
59337;BME280;45115;52.002;4.686;2022-09-09T07:36:04;100580.91;;;17.76;100.00
59337;BME280;45115;52.002;4.686;2022-09-09T07:38:31;100576.97;;;17.74;99.06
59337;BME280;45115;52.002;4.686;2022-09-09T07:41:04;100580.16;;;17.76;99.06
59337;BME280;45115;52.002;4.686;2022-09-09T07:43:33;100584.09;;;17.70;99.26
59337;BME280;45115;52.002;4.686;2022-09-09T07:46:00;100589.38;;;17.57;99.68
59337;BME280;45115;52.002;4.686;2022-09-09T07:48:29;100584.34;;;17.47;100.00
59337;BME280;45115;52.002;4.686;2022-09-09T07:51:07;100590.53;;;17.30;100.00
59337;BME280;45115;52.002;4.686;2022-09-09T07:53:34;100584.44;;;17.11;100.00
59337;BME280;45115;52.002;4.686;2022-09-09T07:56:03;100589.97;;;17.06;100.00
59337;BME280;45115;52.002;4.686;2022-09-09T07:58:30;100587.13;;;16.94;100.00
59337;BME280;45115;52.002;4.686;2022-09-09T08:00:57;100580.97;;;16.84;100.00
59337;BME280;45115;52.002;4.686;2022-09-09T08:03:24;100581.78;;;16.85;100.00
59337;BME280;45115;52.002;4.686;2022-09-09T08:05:52;100587.44;;;16.83;100.00
59337;BME280;45115;52.002;4.686;2022-09-09T08:08:18;100583.66;;;16.76;100.00
59337;BME280;45115;52.002;4.686;2022-09-09T08:10:45;100587.31;;;16.71;100.00
59337;BME280;45115;52.002;4.686;2022-09-09T08:13:11;100589.19;;;16.70;100.00
59337;BME280;45115;52.002;4.686;2022-09-09T08:15:39;100593.44;;;16.71;100.00
59337;BME280;45115;52.002;4.686;2022-09-09T08:18:07;100590.91;;;16.75;100.00
59337;BME280;45115;52.002;4.686;2022-09-09T08:20:36;100594.38;;;16.76;100.00
59337;BME280;45115;52.002;4.686;2022-09-09T08:23:04;100594.53;;;16.79;100.00
59337;BME280;45115;52.002;4.686;2022-09-09T08:25:31;100594.69;;;16.83;100.00
59337;BME280;45115;52.002;4.686;2022-09-09T08:27:59;100590.28;;;16.87;100.00
59337;BME280;45115;52.002;4.686;2022-09-09T08:30:26;100587.44;;;16.92;100.00
59337;BME280;45115;52.002;4.686;2022-09-09T08:32:53;100590.75;;;16.98;100.00
59337;BME280;45115;52.002;4.686;2022-09-09T08:35:21;100596.44;;;17.05;100.00
59337;BME280;45115;52.002;4.686;2022-09-09T08:37:48;100601.63;;;17.10;100.00
59337;BME280;45115;52.002;4.686;2022-09-09T08:40:27;100598.94;;;17.10;100.00
59337;BME280;45115;52.002;4.686;2022-09-09T08:42:57;100597.38;;;17.00;100.00
59337;BME280;45115;52.002;4.686;2022-09-09T08:45:32;100604.47;;;17.05;100.00
59337;BME280;45115;52.002;4.686;2022-09-09T08:48:14;100598.34;;;17.05;100.00
59337;BME280;45115;52.002;4.686;2022-09-09T08:50:44;100603.19;;;17.11;100.00
59337;BME280;45115;52.002;4.686;2022-09-09T08:53:20;100603.06;;;17.08;100.00
59337;BME280;45115;52.002;4.686;2022-09-09T08:55:52;100605.25;;;16.97;100.00
59337;BME280;45115;52.002;4.686;2022-09-09T08:58:31;100607.78;;;16.84;100.00
59337;BME280;45115;52.002;4.686;2022-09-09T09:01:16;100607.78;;;16.84;100.00
59337;BME280;45115;52.002;4.686;2022-09-09T09:03:57;100608.22;;;16.78;100.00
59337;BME280;45115;52.002;4.686;2022-09-09T09:06:38;100599.91;;;16.44;100.00
59337;BME280;45115;52.002;4.686;2022-09-09T09:09:16;100611.81;;;16.20;100.00
59337;BME280;45115;52.002;4.686;2022-09-09T09:11:50;100616.97;;;16.07;100.00
59337;BME280;45115;52.002;4.686;2022-09-09T09:14:20;100610.50;;;16.00;100.00
59337;BME280;45115;52.002;4.686;2022-09-09T09:16:51;100612.84;;;16.01;100.00
59337;BME280;45115;52.002;4.686;2022-09-09T09:19:19;100609.09;;;16.02;100.00
59337;BME280;45115;52.002;4.686;2022-09-09T09:21:51;100616.31;;;16.02;100.00
59337;BME280;45115;52.002;4.686;2022-09-09T09:24:24;100622.78;;;16.10;100.00
59337;BME280;45115;52.002;4.686;2022-09-09T09:26:54;100620.28;;;16.13;100.00
59337;BME280;45115;52.002;4.686;2022-09-09T09:29:23;100618.56;;;16.17;100.00
59337;BME280;45115;52.002;4.686;2022-09-09T09:31:53;100617.78;;;16.17;100.00
59337;BME280;45115;52.002;4.686;2022-09-09T09:34:23;100611.69;;;16.43;100.00
59337;BME280;45115;52.002;4.686;2022-09-09T09:36:54;100611.38;;;16.44;100.00
59337;BME280;45115;52.002;4.686;2022-09-09T09:39:26;100611.03;;;16.28;100.00
59337;BME280;45115;52.002;4.686;2022-09-09T09:41:57;100610.84;;;16.16;100.00
59337;BME280;45115;52.002;4.686;2022-09-09T09:44:27;100607.88;;;16.26;100.00
59337;BME280;45115;52.002;4.686;2022-09-09T09:47:07;100601.47;;;16.36;100.00
59337;BME280;45115;52.002;4.686;2022-09-09T09:49:34;100598.03;;;16.62;100.00
59337;BME280;45115;52.002;4.686;2022-09-09T09:52:02;100597.84;;;16.94;100.00
59337;BME280;45115;52.002;4.686;2022-09-09T09:54:31;100598.00;;;17.24;100.00
59337;BME280;45115;52.002;4.686;2022-09-09T09:57:11;100591.13;;;17.53;100.00
59337;BME280;45115;52.002;4.686;2022-09-09T09:59:39;100594.94;;;18.21;100.00
59337;BME280;45115;52.002;4.686;2022-09-09T10:02:23;100589.66;;;18.55;100.00
59337;BME280;45115;52.002;4.686;2022-09-09T10:05:03;100593.72;;;18.95;98.02
59337;BME280;45115;52.002;4.686;2022-09-09T10:07:32;100579.28;;;19.21;96.00
59337;BME280;45115;52.002;4.686;2022-09-09T10:09:59;100587.88;;;19.14;94.19
59337;BME280;45115;52.002;4.686;2022-09-09T10:12:38;100583.06;;;18.86;94.77
59337;BME280;45115;52.002;4.686;2022-09-09T10:15:23;100595.13;;;18.80;94.96
59337;BME280;45115;52.002;4.686;2022-09-09T10:18:03;100588.03;;;18.96;94.93
59337;BME280;45115;52.002;4.686;2022-09-09T10:20:40;100588.56;;;18.90;94.17
59337;BME280;45115;52.002;4.686;2022-09-09T10:23:21;100599.63;;;18.88;93.64
59337;BME280;45115;52.002;4.686;2022-09-09T10:26:07;100592.16;;;18.94;93.10
59337;BME280;45115;52.002;4.686;2022-09-09T10:28:54;100594.88;;;19.40;91.35
59337;BME280;45115;52.002;4.686;2022-09-09T10:31:28;100604.50;;;18.95;92.16
59337;BME280;45115;52.002;4.686;2022-09-09T10:34:04;100598.00;;;18.96;93.54
59337;BME280;45115;52.002;4.686;2022-09-09T10:36:42;100602.94;;;18.72;93.37
59337;BME280;45115;52.002;4.686;2022-09-09T10:39:18;100599.66;;;18.67;93.59
59337;BME280;45115;52.002;4.686;2022-09-09T10:42:00;100601.56;;;18.45;96.02
59337;BME280;45115;52.002;4.686;2022-09-09T10:44:46;100592.69;;;18.23;97.14
59337;BME280;45115;52.002;4.686;2022-09-09T10:47:27;100595.66;;;18.00;98.88
59337;BME280;45115;52.002;4.686;2022-09-09T10:50:10;100595.22;;;17.89;100.00
59337;BME280;45115;52.002;4.686;2022-09-09T10:52:48;100598.00;;;18.11;99.50
59337;BME280;45115;52.002;4.686;2022-09-09T10:55:22;100600.94;;;18.18;98.79
59337;BME280;45115;52.002;4.686;2022-09-09T10:57:54;100595.44;;;18.14;98.55
59337;BME280;45115;52.002;4.686;2022-09-09T11:00:24;100594.19;;;18.12;98.42
59337;BME280;45115;52.002;4.686;2022-09-09T11:02:55;100593.41;;;18.02;99.93
59337;BME280;45115;52.002;4.686;2022-09-09T11:05:28;100588.81;;;18.12;99.39
59337;BME280;45115;52.002;4.686;2022-09-09T11:07:57;100600.25;;;18.51;98.19
59337;BME280;45115;52.002;4.686;2022-09-09T11:10:29;100592.91;;;18.82;95.36
59337;BME280;45115;52.002;4.686;2022-09-09T11:13:03;100589.72;;;19.35;92.81
59337;BME280;45115;52.002;4.686;2022-09-09T11:15:38;100588.06;;;19.80;90.39
59337;BME280;45115;52.002;4.686;2022-09-09T11:18:10;100590.75;;;19.55;90.45
59337;BME280;45115;52.002;4.686;2022-09-09T11:20:40;100596.69;;;19.86;89.39
59337;BME280;45115;52.002;4.686;2022-09-09T11:23:12;100599.28;;;20.20;87.60
59337;BME280;45115;52.002;4.686;2022-09-09T11:25:43;100594.78;;;20.24;86.75
59337;BME280;45115;52.002;4.686;2022-09-09T11:28:28;100595.69;;;19.90;86.79
59337;BME280;45115;52.002;4.686;2022-09-09T11:31:14;100603.09;;;19.81;87.24
59337;BME280;45115;52.002;4.686;2022-09-09T11:34:03;100609.34;;;19.48;88.29
59337;BME280;45115;52.002;4.686;2022-09-09T11:36:47;100610.09;;;19.23;89.31
59337;BME280;45115;52.002;4.686;2022-09-09T11:39:44;100603.34;;;19.17;91.33
59337;BME280;45115;52.002;4.686;2022-09-09T11:42:18;100598.59;;;19.60;88.80
59337;BME280;45115;52.002;4.686;2022-09-09T11:44:45;100604.44;;;19.87;86.25
59337;BME280;45115;52.002;4.686;2022-09-09T11:47:24;100592.66;;;19.67;86.55
59337;BME280;45115;52.002;4.686;2022-09-09T11:49:55;100599.34;;;19.36;88.73
59337;BME280;45115;52.002;4.686;2022-09-09T11:52:24;100595.81;;;18.89;93.86
59337;BME280;45115;52.002;4.686;2022-09-09T11:54:54;100598.16;;;18.57;97.09
59337;BME280;45115;52.002;4.686;2022-09-09T11:57:27;100606.56;;;18.25;99.33
59337;BME280;45115;52.002;4.686;2022-09-09T11:59:57;100582.00;;;17.84;100.00
59337;BME280;45115;52.002;4.686;2022-09-09T12:02:29;100597.84;;;17.68;100.00
59337;BME280;45115;52.002;4.686;2022-09-09T12:05:00;100584.81;;;17.58;100.00
59337;BME280;45115;52.002;4.686;2022-09-09T12:07:36;100594.25;;;17.64;100.00
59337;BME280;45115;52.002;4.686;2022-09-09T12:10:19;100594.06;;;17.69;100.00
59337;BME280;45115;52.002;4.686;2022-09-09T12:12:46;100584.63;;;17.63;100.00
59337;BME280;45115;52.002;4.686;2022-09-09T12:15:19;100594.84;;;17.70;100.00
59337;BME280;45115;52.002;4.686;2022-09-09T12:17:49;100585.44;;;17.55;100.00
59337;BME280;45115;52.002;4.686;2022-09-09T12:20:18;100582.28;;;17.52;100.00
59337;BME280;45115;52.002;4.686;2022-09-09T12:23:13;100594.00;;;17.39;100.00
59337;BME280;45115;52.002;4.686;2022-09-09T12:25:55;100593.09;;;17.17;100.00
59337;BME280;45115;52.002;4.686;2022-09-09T12:28:27;100588.53;;;17.00;100.00
59337;BME280;45115;52.002;4.686;2022-09-09T12:31:05;100604.47;;;16.79;100.00
59337;BME280;45115;52.002;4.686;2022-09-09T12:33:36;100591.72;;;16.58;100.00
59337;BME280;45115;52.002;4.686;2022-09-09T12:36:09;100581.59;;;16.37;100.00
59337;BME280;45115;52.002;4.686;2022-09-09T12:38:40;100590.91;;;16.40;100.00
59337;BME280;45115;52.002;4.686;2022-09-09T12:41:20;100606.81;;;16.54;100.00
59337;BME280;45115;52.002;4.686;2022-09-09T12:43:47;100608.25;;;16.69;100.00
59337;BME280;45115;52.002;4.686;2022-09-09T12:46:22;100600.69;;;16.80;100.00
59337;BME280;45115;52.002;4.686;2022-09-09T12:48:53;100612.06;;;17.03;100.00
59337;BME280;45115;52.002;4.686;2022-09-09T12:51:24;100619.13;;;16.99;100.00
59337;BME280;45115;52.002;4.686;2022-09-09T12:53:52;100615.19;;;16.96;100.00
59337;BME280;45115;52.002;4.686;2022-09-09T12:56:21;100616.75;;;16.97;100.00
59337;BME280;45115;52.002;4.686;2022-09-09T12:58:50;100621.00;;;16.98;100.00
59337;BME280;45115;52.002;4.686;2022-09-09T13:01:21;100625.44;;;17.03;100.00
59337;BME280;45115;52.002;4.686;2022-09-09T13:03:48;100613.63;;;17.04;100.00